createdAt,value
2018-04-13T00:00:38.360Z,6.47
2018-04-13T00:03:05.037Z,6.47
2018-04-13T00:05:31.688Z,5.50
2018-04-13T00:07:58.862Z,5.53
2018-04-13T00:10:25.522Z,5.83
2018-04-13T00:12:52.339Z,6.03
2018-04-13T00:15:24.953Z,6.57
2018-04-13T00:17:52.227Z,5.67
2018-04-13T00:20:18.869Z,5.50
2018-04-13T00:22:45.640Z,7.07
2018-04-13T00:25:12.276Z,6.13
2018-04-13T00:27:38.944Z,7.00
2018-04-13T00:30:06.414Z,5.77
2018-04-13T00:32:38.880Z,6.87
2018-04-13T00:35:05.581Z,6.77
2018-04-13T00:37:32.222Z,6.50
2018-04-13T00:40:04.774Z,7.13
2018-04-13T00:42:31.452Z,8.73
2018-04-13T00:44:58.141Z,6.63
2018-04-13T00:47:24.820Z,6.97
2018-04-13T00:49:51.513Z,6.33
2018-04-13T00:52:18.201Z,6.67
2018-04-13T00:54:50.887Z,6.77
2018-04-13T00:57:23.595Z,6.53
2018-04-13T00:59:50.269Z,5.87
2018-04-13T01:02:22.941Z,6.50
2018-04-13T01:04:49.634Z,6.33
2018-04-13T01:07:16.341Z,6.40
2018-04-13T01:09:48.743Z,5.87
2018-04-13T01:12:15.455Z,5.47
2018-04-13T01:14:42.124Z,6.50
2018-04-13T01:17:08.841Z,6.80
2018-04-13T01:19:35.495Z,7.00
2018-04-13T01:22:02.192Z,6.97
2018-04-13T01:24:28.832Z,7.37
2018-04-13T01:26:55.542Z,7.70
2018-04-13T01:29:28.338Z,7.27
2018-04-13T01:32:00.789Z,5.80
2018-04-13T01:34:33.313Z,6.67
2018-04-13T01:37:00.253Z,6.17
2018-04-13T01:39:27.065Z,6.27
2018-04-13T01:41:53.723Z,6.50
2018-04-13T01:44:20.416Z,6.83
2018-04-13T01:46:47.071Z,8.60
2018-04-13T01:49:13.758Z,6.83
2018-04-13T01:51:46.325Z,6.60
2018-04-13T01:54:13.587Z,6.57
2018-04-13T01:56:40.230Z,6.93
2018-04-13T01:59:06.965Z,7.53
2018-04-13T02:01:33.624Z,6.73
2018-04-13T02:04:00.295Z,7.03
2018-04-13T02:06:26.956Z,7.00
2018-04-13T02:08:53.644Z,8.03
2018-04-13T02:11:20.340Z,8.33
2018-04-13T02:13:46.997Z,7.00
2018-04-13T02:16:13.675Z,7.63
2018-04-13T02:18:40.337Z,9.63
2018-04-13T02:21:07.150Z,6.43
2018-04-13T02:23:33.857Z,6.97
2018-04-13T02:26:00.544Z,8.07
2018-04-13T02:28:27.225Z,7.37
2018-04-13T02:30:59.588Z,8.63
2018-04-13T02:33:27.122Z,8.37
2018-04-13T02:35:53.794Z,7.63
2018-04-13T02:38:26.256Z,8.03
2018-04-13T02:40:58.827Z,8.80
2018-04-13T02:43:25.503Z,7.03
2018-04-13T02:45:57.942Z,8.20
2018-04-13T02:48:24.634Z,8.07
2018-04-13T02:50:51.268Z,7.90
2018-04-13T02:53:24.041Z,7.43
2018-04-13T02:55:56.320Z,7.87
2018-04-13T02:58:22.968Z,7.80
2018-04-13T03:00:55.447Z,7.13
2018-04-13T03:03:27.869Z,7.43
2018-04-13T03:05:55.054Z,8.20
2018-04-13T03:08:21.739Z,7.27
2018-04-13T03:10:48.423Z,7.90
2018-04-13T03:13:15.094Z,9.40
2018-04-13T03:15:47.447Z,8.03
2018-04-13T03:18:14.157Z,8.47
2018-04-13T03:20:40.921Z,8.13
2018-04-13T03:23:07.607Z,7.90
2018-04-13T03:25:34.304Z,8.73
2018-04-13T03:28:06.760Z,9.90
2018-04-13T03:30:33.494Z,7.17
2018-04-13T03:33:05.995Z,7.70
2018-04-13T03:35:32.682Z,8.63
2018-04-13T03:37:59.372Z,9.27
2018-04-13T03:40:26.037Z,9.10
2018-04-13T03:42:52.680Z,8.73
2018-04-13T03:45:19.476Z,8.57
2018-04-13T03:47:46.138Z,8.40
2018-04-13T03:50:12.810Z,8.80
2018-04-13T03:52:39.460Z,7.83
2018-04-13T03:55:06.137Z,8.87
2018-04-13T03:57:32.791Z,8.80
2018-04-13T03:59:59.679Z,8.90
2018-04-13T04:02:37.994Z,8.63
2018-04-13T04:05:05.389Z,9.17
2018-04-13T04:07:37.839Z,8.90
2018-04-13T04:10:04.534Z,9.17
2018-04-13T04:12:31.193Z,8.53
2018-04-13T04:15:03.556Z,9.73
2018-04-13T04:17:30.263Z,8.93
2018-04-13T04:20:02.887Z,9.90
2018-04-13T04:22:35.336Z,7.97
2018-04-13T04:25:07.861Z,9.03
2018-04-13T04:27:34.587Z,8.07
2018-04-13T04:30:01.244Z,9.30
2018-04-13T04:32:28.123Z,9.10
2018-04-13T04:34:54.820Z,8.53
2018-04-13T04:37:21.517Z,8.57
2018-04-13T04:39:48.224Z,8.40
2018-04-13T04:42:14.941Z,8.10
2018-04-13T04:44:47.447Z,9.27
2018-04-13T04:47:14.093Z,9.40
2018-04-13T04:49:40.784Z,8.90
2018-04-13T04:52:07.472Z,8.87
2018-04-13T04:54:39.920Z,9.37
2018-04-13T04:57:06.602Z,9.53
2018-04-13T04:59:33.279Z,8.47
2018-04-13T05:02:05.715Z,8.90
2018-04-13T05:04:32.365Z,8.00
2018-04-13T05:07:04.905Z,9.93
2018-04-13T05:09:31.684Z,9.13
2018-04-13T05:11:58.381Z,8.97
2018-04-13T05:14:25.163Z,9.20
2018-04-13T05:16:51.847Z,9.27
2018-04-13T05:19:18.555Z,9.73
2018-04-13T05:21:45.223Z,10.87
2018-04-13T05:24:11.955Z,10.07
2018-04-13T05:26:38.668Z,10.33
2018-04-13T05:29:05.387Z,8.33
2018-04-13T05:31:37.852Z,8.17
2018-04-13T05:34:10.162Z,8.30
2018-04-13T05:36:42.463Z,8.10
2018-04-13T05:39:15.013Z,7.73
2018-04-13T05:41:41.736Z,8.77
2018-04-13T05:44:08.451Z,9.03
2018-04-13T05:46:41.145Z,6.77
2018-04-13T05:49:07.816Z,8.93
2018-04-13T05:51:34.495Z,8.77
2018-04-13T05:54:01.228Z,8.27
2018-04-13T05:56:33.680Z,8.33
2018-04-13T05:59:00.401Z,7.70
2018-04-13T06:01:27.118Z,8.87
2018-04-13T06:03:53.923Z,8.27
2018-04-13T06:06:20.636Z,8.60
2018-04-13T06:08:47.310Z,7.73
2018-04-13T06:11:14.012Z,9.13
2018-04-13T06:13:40.691Z,7.87
2018-04-13T06:16:07.322Z,8.30
2018-04-13T06:18:34.028Z,9.03
2018-04-13T06:21:00.731Z,8.40
2018-04-13T06:23:33.355Z,9.30
2018-04-13T06:26:00.046Z,8.10
2018-04-13T06:28:26.758Z,7.80
2018-04-13T06:30:53.419Z,7.53
2018-04-13T06:33:20.127Z,7.63
2018-04-13T06:35:46.897Z,9.03
2018-04-13T06:38:13.590Z,7.67
2018-04-13T06:40:46.152Z,9.77
2018-04-13T06:43:12.909Z,7.93
2018-04-13T06:45:39.594Z,8.43
2018-04-13T06:48:06.288Z,8.00
2018-04-13T06:50:32.933Z,7.83
2018-04-13T06:53:05.722Z,8.50
2018-04-13T06:55:32.558Z,8.93
2018-04-13T06:58:05.099Z,8.60
2018-04-13T07:00:31.808Z,9.37
2018-04-13T07:02:58.528Z,8.77
2018-04-13T07:05:25.237Z,8.57
2018-04-13T07:07:51.969Z,9.07
2018-04-13T07:10:19.353Z,9.13
2018-04-13T07:12:51.817Z,10.13
2018-04-13T07:15:24.467Z,10.23
2018-04-13T07:17:51.153Z,9.20
2018-04-13T07:20:17.877Z,9.73
2018-04-13T07:22:50.991Z,8.87
2018-04-13T07:25:17.720Z,9.37
2018-04-13T07:27:44.439Z,10.10
2018-04-13T07:30:16.950Z,8.93
2018-04-13T07:32:44.018Z,10.87
2018-04-13T07:35:10.469Z,10.03
2018-04-13T07:37:38.128Z,9.20
2018-04-13T07:40:04.899Z,9.10
2018-04-13T07:42:31.558Z,9.97
2018-04-13T07:44:58.409Z,9.43
2018-04-13T07:47:36.805Z,10.40
2018-04-13T07:50:03.525Z,10.00
2018-04-13T07:52:41.829Z,9.93
2018-04-13T07:55:08.506Z,10.10
2018-04-13T07:57:35.152Z,8.97
2018-04-13T08:00:02.832Z,10.30
2018-04-13T08:02:35.558Z,9.73
2018-04-13T08:05:01.894Z,10.53
2018-04-13T08:07:28.624Z,9.33
2018-04-13T08:09:55.294Z,9.93
2018-04-13T08:12:22.032Z,10.13
2018-04-13T08:14:54.581Z,9.30
2018-04-13T08:17:21.271Z,9.37
2018-04-13T08:19:47.954Z,9.63
2018-04-13T08:22:20.536Z,11.77
2018-04-13T08:24:47.187Z,10.87
2018-04-13T08:27:19.663Z,10.87
2018-04-13T08:29:46.361Z,11.53
2018-04-13T08:32:13.069Z,11.43
2018-04-13T08:34:39.705Z,10.27
2018-04-13T08:37:18.328Z,10.10
2018-04-13T08:39:50.823Z,10.20
2018-04-13T08:42:23.448Z,10.97
2018-04-13T08:44:57.079Z,10.50
2018-04-13T08:47:23.874Z,12.17
2018-04-13T08:49:50.627Z,10.67
2018-04-13T08:52:18.236Z,10.40
2018-04-13T08:54:44.937Z,11.20
2018-04-13T08:57:17.345Z,10.47
2018-04-13T08:59:44.640Z,12.50
2018-04-13T09:02:11.369Z,11.53
2018-04-13T09:04:38.050Z,10.60
2018-04-13T09:07:04.816Z,10.73
2018-04-13T09:09:31.475Z,10.07
2018-04-13T09:11:58.173Z,10.40
2018-04-13T09:14:24.841Z,9.97
2018-04-13T09:16:51.518Z,11.03
2018-04-13T09:19:18.261Z,10.23
2018-04-13T09:21:44.918Z,11.73
2018-04-13T09:24:11.590Z,9.37
2018-04-13T09:26:38.241Z,9.53
2018-04-13T09:29:04.942Z,10.30
2018-04-13T09:31:31.643Z,9.43
2018-04-13T09:34:04.067Z,9.83
2018-04-13T09:36:30.777Z,10.50
2018-04-13T09:38:57.477Z,10.87
2018-04-13T09:41:29.869Z,7.87
2018-04-13T09:43:56.548Z,7.90
2018-04-13T09:46:24.406Z,8.63
2018-04-13T09:48:51.080Z,8.13
2018-04-13T09:51:17.765Z,8.33
2018-04-13T09:53:50.350Z,7.90
2018-04-13T09:56:17.035Z,7.37
2018-04-13T09:58:43.736Z,6.93
2018-04-13T10:01:14.219Z,8.53
2018-04-13T10:03:46.724Z,8.13
2018-04-13T10:06:14.392Z,8.40
2018-04-13T10:08:42.525Z,7.53
2018-04-13T10:11:10.358Z,8.57
2018-04-13T10:13:42.950Z,7.73
2018-04-13T10:16:11.006Z,6.73
2018-04-13T10:18:41.933Z,7.30
2018-04-13T10:21:11.704Z,7.00
2018-04-13T10:23:44.555Z,7.17
2018-04-13T10:26:12.086Z,7.13
2018-04-13T10:28:56.453Z,8.40
2018-04-13T10:31:43.113Z,7.43
2018-04-13T10:34:12.553Z,8.50
2018-04-13T10:36:44.965Z,7.03
2018-04-13T10:39:13.877Z,7.83
2018-04-13T10:44:16.203Z,9.13
2018-04-13T10:46:43.296Z,7.20
2018-04-13T10:49:11.020Z,7.70
2018-04-13T10:51:37.698Z,7.73
2018-04-13T10:54:04.379Z,7.53
2018-04-13T10:56:31.050Z,6.87
2018-04-13T10:58:57.735Z,8.60
2018-04-13T11:01:24.389Z,9.10
2018-04-13T11:03:51.060Z,8.00
2018-04-13T11:06:23.560Z,9.20
2018-04-13T11:08:50.250Z,7.47
2018-04-13T11:11:16.918Z,7.13
2018-04-13T11:13:43.715Z,9.00
2018-04-13T11:16:16.076Z,7.57
2018-04-13T11:18:42.877Z,9.50
2018-04-13T11:21:15.383Z,7.17
2018-04-13T11:23:42.037Z,7.73
2018-04-13T11:26:08.724Z,7.80
2018-04-13T11:28:35.422Z,7.43
2018-04-13T11:31:02.073Z,7.30
2018-04-13T11:33:28.740Z,7.50
2018-04-13T11:35:55.504Z,7.13
2018-04-13T11:38:22.166Z,7.07
2018-04-13T11:40:48.948Z,7.67
2018-04-13T11:43:15.679Z,6.50
2018-04-13T11:45:42.340Z,6.77
2018-04-13T11:48:09.000Z,6.47
2018-04-13T11:50:41.414Z,6.50
2018-04-13T11:53:14.024Z,8.03
2018-04-13T11:55:40.671Z,7.17
2018-04-13T11:58:07.318Z,6.87
2018-04-13T12:00:34.097Z,7.27
2018-04-13T12:03:00.769Z,7.37
2018-04-13T12:05:27.464Z,6.80
2018-04-13T12:07:54.192Z,7.70
2018-04-13T12:10:20.879Z,7.50
2018-04-13T12:12:47.544Z,6.20
2018-04-13T12:15:14.244Z,5.67
2018-04-13T12:17:40.900Z,7.33
2018-04-13T12:20:07.739Z,7.00
2018-04-13T12:22:34.377Z,6.47
2018-04-13T12:25:01.060Z,6.50
2018-04-13T12:27:27.701Z,6.20
2018-04-13T12:29:54.404Z,6.20
2018-04-13T12:32:21.076Z,6.60
2018-04-13T12:34:48.389Z,6.60
2018-04-13T12:37:16.001Z,6.43
2018-04-13T12:39:42.653Z,7.73
2018-04-13T12:42:12.825Z,6.70
2018-04-13T12:44:40.489Z,5.87
2018-04-13T12:47:07.168Z,4.90
2018-04-13T12:49:33.857Z,6.93
2018-04-13T12:52:01.398Z,7.33
2018-04-13T12:54:28.660Z,4.93
2018-04-13T12:56:56.070Z,5.67
2018-04-13T12:59:30.568Z,4.90
2018-04-13T13:01:57.299Z,5.80
2018-04-13T13:04:23.965Z,5.87
2018-04-13T13:06:50.754Z,6.10
2018-04-13T13:09:18.195Z,5.17
2018-04-13T13:11:45.011Z,5.33
2018-04-13T13:14:11.700Z,5.10
2018-04-13T13:16:38.340Z,5.70
2018-04-13T13:19:07.777Z,4.03
2018-04-13T13:21:38.167Z,4.30
2018-04-13T13:24:07.079Z,3.00
2018-04-13T13:26:38.284Z,4.17
2018-04-13T13:29:06.658Z,3.20
2018-04-13T13:31:33.855Z,3.83
2018-04-13T13:34:10.945Z,4.10
2018-04-13T13:36:39.141Z,2.97
2018-04-13T13:39:08.883Z,3.80
2018-04-13T13:41:41.323Z,3.07
2018-04-13T13:44:18.375Z,3.70
2018-04-13T13:46:54.921Z,2.63
2018-04-13T13:49:29.130Z,3.10
2018-04-13T13:51:59.893Z,3.43
2018-04-13T13:54:31.855Z,2.97
2018-04-13T13:57:02.372Z,2.60
2018-04-13T13:59:32.115Z,3.45
2018-04-13T14:02:00.204Z,3.50
2018-04-13T14:04:33.368Z,4.70
2018-04-13T14:07:00.163Z,3.10
2018-04-13T14:09:28.196Z,3.53
2018-04-13T14:11:54.863Z,2.93
2018-04-13T14:14:21.535Z,3.47
2018-04-13T14:16:48.845Z,3.40
2018-04-13T14:19:15.509Z,3.33
2018-04-13T14:21:42.749Z,2.90
2018-04-13T14:24:10.779Z,3.43
2018-04-13T14:26:37.450Z,3.20
2018-04-13T14:29:04.732Z,2.83
2018-04-13T14:31:31.573Z,2.50
2018-04-13T14:33:58.314Z,3.47
2018-04-13T14:36:24.993Z,2.30
2018-04-13T14:38:51.647Z,3.90
2018-04-13T14:41:18.314Z,2.80
2018-04-13T14:43:45.064Z,3.58
2018-04-13T14:46:11.734Z,3.23
2018-04-13T14:48:38.400Z,3.47
2018-04-13T14:51:05.099Z,2.70
2018-04-13T14:53:31.808Z,3.83
2018-04-13T14:55:58.459Z,3.47
2018-04-13T14:58:25.145Z,3.90
2018-04-13T15:00:51.827Z,3.25
2018-04-13T15:03:18.563Z,3.30
2018-04-13T15:05:45.237Z,4.27
2018-04-13T15:08:11.943Z,4.00
2018-04-13T15:10:38.649Z,3.80
2018-04-13T15:13:05.284Z,4.70
2018-04-13T15:15:31.925Z,3.90
2018-04-13T15:17:58.661Z,4.47
2018-04-13T15:20:25.306Z,4.40
2018-04-13T15:22:52.011Z,4.40
2018-04-13T15:25:18.683Z,3.62
2018-04-13T15:27:46.170Z,4.43
2018-04-13T15:30:13.473Z,3.85
2018-04-13T15:32:41.417Z,4.47
2018-04-13T15:35:08.099Z,3.90
2018-04-13T15:37:34.761Z,5.25
2018-04-13T15:40:01.456Z,3.87
2018-04-13T15:42:28.124Z,3.90
2018-04-13T15:44:54.939Z,4.40
2018-04-13T15:47:22.095Z,5.30
2018-04-13T15:49:48.943Z,4.27
2018-04-13T15:52:15.588Z,3.07
2018-04-13T15:54:42.250Z,3.70
2018-04-13T15:57:08.964Z,3.87
2018-04-13T15:59:35.645Z,4.93
2018-04-13T16:02:02.308Z,4.37
2018-04-13T16:04:28.980Z,4.35
2018-04-13T16:06:55.618Z,3.57
2018-04-13T16:09:22.303Z,4.10
2018-04-13T16:11:48.972Z,3.60
2018-04-13T16:14:15.675Z,5.67
2018-04-13T16:16:42.320Z,3.37
2018-04-13T16:19:09.880Z,3.55
2018-04-13T16:21:37.475Z,3.67
2018-04-13T16:24:04.174Z,3.23
2018-04-13T16:26:31.792Z,3.67
2018-04-13T16:28:58.493Z,4.10
2018-04-13T16:31:25.152Z,3.60
2018-04-13T16:33:51.930Z,3.97
2018-04-13T16:36:18.613Z,3.93
2018-04-13T16:38:45.357Z,5.20
2018-04-13T16:41:12.059Z,6.47
2018-04-13T16:43:38.748Z,6.43
2018-04-13T16:46:05.460Z,7.25
2018-04-13T16:48:32.129Z,7.90
2018-04-13T16:50:58.790Z,7.43
2018-04-13T16:53:25.477Z,7.43
2018-04-13T16:55:52.971Z,8.63
2018-04-13T16:58:19.644Z,2.40
2018-04-13T17:00:46.310Z,2.20
2018-04-13T17:03:13.071Z,2.00
2018-04-13T17:05:39.754Z,1.30
2018-04-13T17:08:06.475Z,0.80
2018-04-13T17:10:33.121Z,1.27
2018-04-13T17:12:59.798Z,1.53
2018-04-13T17:15:26.428Z,1.03
2018-04-13T17:17:53.144Z,0.83
2018-04-13T17:20:19.797Z,1.10
2018-04-13T17:22:46.425Z,1.13
2018-04-13T17:25:13.083Z,1.20
2018-04-13T17:27:39.756Z,1.00
2018-04-13T17:30:06.439Z,1.00
2018-04-13T17:32:33.149Z,1.40
2018-04-13T17:34:59.849Z,1.67
2018-04-13T17:37:26.536Z,1.10
2018-04-13T17:39:53.353Z,1.37
2018-04-13T17:42:20.013Z,1.80
2018-04-13T17:44:47.627Z,1.37
2018-04-13T17:47:14.287Z,1.40
2018-04-13T17:49:41.669Z,1.17
2018-04-13T17:52:08.375Z,1.30
2018-04-13T17:54:35.076Z,1.63
2018-04-13T17:57:01.714Z,2.37
2018-04-13T17:59:29.293Z,2.30
2018-04-13T18:01:55.952Z,1.93
2018-04-13T18:04:22.734Z,1.90
2018-04-13T18:06:49.461Z,1.30
2018-04-13T18:09:16.114Z,1.30
2018-04-13T18:11:42.808Z,1.37
2018-04-13T18:14:09.440Z,1.03
2018-04-13T18:16:36.096Z,1.53
2018-04-13T18:19:02.733Z,1.63
2018-04-13T18:21:29.397Z,1.93
2018-04-13T18:23:56.070Z,1.87
2018-04-13T18:26:22.699Z,1.63
2018-04-13T18:28:49.388Z,1.70
2018-04-13T18:31:16.148Z,1.90
2018-04-13T18:33:42.807Z,1.10
2018-04-13T18:36:12.515Z,1.50
2018-04-13T18:38:39.151Z,1.40
2018-04-13T18:41:05.856Z,2.03
2018-04-13T18:43:32.482Z,1.67
2018-04-13T18:45:59.152Z,2.00
2018-04-13T18:48:27.544Z,2.53
2018-04-13T18:50:54.388Z,2.10
2018-04-13T18:53:21.039Z,2.43
2018-04-13T18:55:49.445Z,1.70
2018-04-13T18:58:16.236Z,2.03
2018-04-13T19:00:43.627Z,1.50
2018-04-13T19:03:10.301Z,1.60
2018-04-13T19:05:36.961Z,2.33
2018-04-13T19:08:03.657Z,1.80
2018-04-13T19:10:30.296Z,1.50
2018-04-13T19:12:57.001Z,2.00
2018-04-13T19:15:23.640Z,1.67
2018-04-13T19:17:50.330Z,1.93
2018-04-13T19:20:17.009Z,2.30
2018-04-13T19:22:43.688Z,2.10
2018-04-13T19:25:10.354Z,2.40
2018-04-13T19:27:37.052Z,2.07
2018-04-13T19:30:03.694Z,2.27
2018-04-13T19:32:30.375Z,2.97
2018-04-13T19:34:57.009Z,2.50
2018-04-13T19:37:23.691Z,2.47
2018-04-13T19:39:50.356Z,2.70
2018-04-13T19:42:17.028Z,2.77
2018-04-13T19:44:43.737Z,2.83
2018-04-13T19:47:10.720Z,2.13
2018-04-13T19:49:37.513Z,2.67
2018-04-13T19:52:04.258Z,2.00
2018-04-13T19:54:31.061Z,3.07
2018-04-13T19:56:57.745Z,2.20
2018-04-13T19:59:28.050Z,2.80
2018-04-13T20:01:54.916Z,3.57
2018-04-13T20:04:24.713Z,3.97
2018-04-13T20:06:51.861Z,5.43
2018-04-13T20:09:18.611Z,5.10
2018-04-13T20:11:45.377Z,5.67
2018-04-13T20:14:27.156Z,6.30
2018-04-13T20:16:54.055Z,7.83
2018-04-13T20:19:21.102Z,7.50
2018-04-13T20:21:47.964Z,7.30
2018-04-13T20:24:14.629Z,6.73
2018-04-13T20:26:41.264Z,8.80
2018-04-13T20:29:07.920Z,8.63
2018-04-13T20:31:34.579Z,8.37
2018-04-13T20:34:01.263Z,7.57
2018-04-13T20:36:27.917Z,9.10
2018-04-13T20:38:54.597Z,8.20
2018-04-13T20:41:21.276Z,7.83
2018-04-13T20:43:47.936Z,8.67
2018-04-13T20:46:14.601Z,7.77
2018-04-13T20:48:41.228Z,8.13
2018-04-13T20:51:07.931Z,7.27
2018-04-13T20:53:34.620Z,9.17
2018-04-13T20:56:01.485Z,7.47
2018-04-13T20:58:28.133Z,8.73
2018-04-13T21:00:54.795Z,8.67
2018-04-13T21:03:21.440Z,8.03
2018-04-13T21:05:48.261Z,10.00
2018-04-13T21:08:14.925Z,9.27
2018-04-13T21:10:41.594Z,9.97
2018-04-13T21:13:08.244Z,8.60
2018-04-13T21:15:34.876Z,10.33
2018-04-13T21:18:01.617Z,9.73
2018-04-13T21:20:28.286Z,10.70
2018-04-13T21:22:54.970Z,10.77
2018-04-13T21:25:22.016Z,11.60
2018-04-13T21:27:48.693Z,10.33
2018-04-13T21:30:15.356Z,10.87
2018-04-13T21:32:42.068Z,11.30
2018-04-13T21:35:08.748Z,10.97
2018-04-13T21:37:35.390Z,12.90
2018-04-13T21:40:02.058Z,11.23
2018-04-13T21:42:28.748Z,12.07
2018-04-13T21:44:55.397Z,11.13
2018-04-13T21:47:22.096Z,11.43
2018-04-13T21:49:48.765Z,11.47
2018-04-13T21:52:15.530Z,11.30
2018-04-13T21:54:42.213Z,11.00
2018-04-13T21:57:08.881Z,11.70
2018-04-13T21:59:35.550Z,10.70
2018-04-13T22:02:02.193Z,11.40
2018-04-13T22:04:28.901Z,10.73
2018-04-13T22:06:55.566Z,12.30
2018-04-13T22:09:22.266Z,10.93
2018-04-13T22:11:48.935Z,11.20
2018-04-13T22:14:21.432Z,10.50
2018-04-13T22:16:48.120Z,12.13
2018-04-13T22:19:14.801Z,10.70
2018-04-13T22:21:41.442Z,11.43
2018-04-13T22:24:09.037Z,11.30
2018-04-13T22:26:36.899Z,10.87
2018-04-13T22:29:03.880Z,11.67
2018-04-13T22:31:31.508Z,11.47
2018-04-13T22:33:58.188Z,11.30
2018-04-13T22:36:25.310Z,9.97
2018-04-13T22:38:51.962Z,10.83
2018-04-13T22:41:18.682Z,11.23
2018-04-13T22:43:45.347Z,10.83
2018-04-13T22:46:12.090Z,11.03
2018-04-13T22:48:38.745Z,10.30
2018-04-13T22:51:05.431Z,10.83
2018-04-13T22:53:32.199Z,9.37
2018-04-13T22:55:58.898Z,10.23
2018-04-13T22:58:25.550Z,10.63
2018-04-13T23:00:52.242Z,10.63
2018-04-13T23:03:18.929Z,10.73
2018-04-13T23:05:45.594Z,11.20
2018-04-13T23:08:12.259Z,9.97
2018-04-13T23:10:38.913Z,11.23
2018-04-13T23:13:05.588Z,11.90
2018-04-13T23:15:32.255Z,9.90
2018-04-13T23:17:58.928Z,10.87
2018-04-13T23:20:25.604Z,10.63
2018-04-13T23:22:52.300Z,11.17
2018-04-13T23:25:18.952Z,11.93
2018-04-13T23:27:45.623Z,10.47
2018-04-13T23:30:12.374Z,11.97
2018-04-13T23:32:39.056Z,9.33
2018-04-13T23:35:05.734Z,11.80
2018-04-13T23:37:32.412Z,10.60
2018-04-13T23:39:59.292Z,10.37
2018-04-13T23:42:25.983Z,10.93
2018-04-13T23:44:52.654Z,9.83
2018-04-13T23:47:19.444Z,10.83
2018-04-13T23:49:46.088Z,11.20
2018-04-13T23:52:12.747Z,11.63
2018-04-13T23:54:39.881Z,10.30
2018-04-13T23:57:06.544Z,13.03
2018-04-13T23:59:33.809Z,11.67
